x

Central Gulf Of Alaska - 265nm West Of Cape Ommaney, Akk (46085) Wave Buoy

5:50pm - Wed 16th Aug 2017 All times are UTC.

  • Sig Wave height 7.9ft
  • Peak Period 11s
  • Average Period 6s
  • Wind
    16mph, 20mph gusts
  • Sea Temp 58°f
  • Air Temp 57°f
  • Sea Pressure 1009.8mb

More Historic Weather Station data

Upgrade to MSW Pro to gain access to the past 30 days of data for over 8000 Wavebouys and Weather Stations around the globe.

Join

Comparision Forecast

View Surf forecast
   
Wed 08/16 5:50pm 8ft 11s 6s 16 20 mph 1009.8mb 58f 57f
4:50pm 8ft 9s 7s 13 16 mph 1009.3mb 58f 56f
3:50pm 8ft 9s 7s 16 18 mph 1009mb 58f 56f
2:50pm 8.5ft 11s 7s 16 18 mph 1008.4mb 58f 56f
1:50pm 9ft 11s 7s 16 20 mph 1007.9mb 58f 56f
12:50pm 8ft 11s 6s 18 22 mph 1007.6mb 58f 57f
11:50am 8.5ft 11s 7s 18 22 mph 1007mb 58f 57f
10:50am 8.5ft 10s 7s 18 22 mph 1006.3mb 58f 57f
9:50am 9ft 11s 7s 18 22 mph 1005.6mb 58f 57f
8:50am 9ft 11s 7s 18 22 mph 1004.8mb 58f 57f
7:50am 9.5ft 10s 7s 18 22 mph 1004.1mb 58f 57f
6:50am 9ft 11s 6s 22 27 mph 1002.8mb 58f 56f
5:50am 9.5ft 10s 6s 20 25 mph 1001.6mb 58f 56f
4:50am 10ft 10s 7s 22 25 mph 1000.2mb 58f 57f
3:50am 9ft 9s 7s 16 18 mph 998.7mb 58f 57f
1:50am 7ft 9s 7s 9 9 mph 997.7mb 58f 57f
12:50am 7ft 8s 7s 9 11 mph 997.6mb 58f 56f
Tue 08/15 11:50pm 7ft 11s 7s 9 11 mph 997.4mb 58f 56f
9:50pm 7ft 9s 6s 9 11 mph 997mb 58f 56f
8:50pm 6ft 10s 6s 11 13 mph 997mb 57f 56f
7:50pm 5.5ft 10s 6s 11 13 mph 996.9mb 57f 56f
6:50pm 6ft 5s 6s 11 16 mph 996.9mb 57f 56f
5:50pm 6.5ft 6s 5s 13 16 mph 997.3mb 57f 56f
4:50pm 7.5ft 6s 6s 11 16 mph 997.8mb 57f 56f
3:50pm 8ft 6s 6s 16 20 mph 998.4mb 57f 57f
2:50pm 7.5ft 5s 5s 25 29 mph 999.5mb 57f 56f
1:50pm 6.5ft 5s 5s 25 29 mph 1000.9mb 58f 55f
12:50pm 6ft 5s 5s 25 31 mph 1002.6mb 58f 55f
11:50am 5ft 10s 5s 22 29 mph 1004mb 58f 55f
10:50am 5ft 9s 5s 22 25 mph 1005.6mb 58f 54f
9:50am 4.5ft 9s 5s 20 25 mph 1006.9mb 58f 54f
8:50am 4ft 9s 5s 18 20 mph 1008.1mb 58f 55f
7:50am 4.5ft 8s 5s 16 20 mph 1008.9mb 58f 55f
6:50am 4.5ft 8s 6s 11 16 mph 1009.7mb 58f 56f
5:50am 4ft 8s 5s 13 16 mph 1010.1mb 58f 56f
4:50am 4.5ft 8s 5s 16 18 mph 1010.3mb 58f 56f
3:50am 4.5ft 8s 6s 11 13 mph 1010.8mb 57f 56f
2:50am 4.5ft 7s 6s 7 9 mph 1011.2mb 57f 56f
1:50am 4.5ft 8s 6s 7 7 mph 1011.5mb 58f 56f
12:50am 4.5ft 8s 6s 7 11 mph 1011.5mb 58f 56f
Mon 08/14 11:50pm 5ft 8s 6s 7 9 mph 1011.8mb 58f 56f
10:50pm 4.5ft 8s 6s 9 9 mph 1012mb 58f 56f
9:50pm 5ft 7s 6s 9 11 mph 1012mb 58f 56f
8:50pm 5ft 8s 6s 9 11 mph 1011.7mb 57f 56f
7:50pm 5ft 8s 6s 9 11 mph 1011.4mb 57f 56f
6:50pm 5.5ft 8s 6s 4 7 mph 1011.1mb 57f 56f
5:50pm 5.5ft 8s 6s 4 4 mph 1010.9mb 57f 56f
4:50pm 6ft 9s 6s 7 9 mph 1010.4mb 57f 56f
3:50pm 6ft 8s 6s 4 7 mph 1010mb 57f 55f
2:50pm 6ft 9s 6s 9 11 mph 1009.8mb 56f 55f
1:50pm 6ft 8s 6s 7 9 mph 1009.3mb 56f 55f
12:50pm 6ft 9s 6s 9 11 mph 1009.1mb 56f 55f
11:50am 6.5ft 8s 6s 9 11 mph 1008.8mb 56f 55f
10:50am 6.5ft 8s 6s 11 13 mph 1008.8mb 57f 55f
9:50am 7.5ft 8s 6s 9 11 mph 1008.8mb 57f 55f
8:50am 7ft 8s 6s 11 13 mph 1008.5mb 57f 55f
7:50am 7.5ft 8s  -  11 13 mph 1008.1mb 57f 55f
6:50am 7ft 8s 6s 13 16 mph 1007.9mb 57f 55f
5:50am 7.5ft 8s 6s 16 18 mph 1007.4mb 57f 56f
4:50am 8ft 8s 6s 16 20 mph 1006.9mb 57f 56f
3:50am 8ft 8s 6s 16 18 mph 1006.5mb 57f 56f
2:50am 8.5ft 8s 6s 16 18 mph 1006.5mb 57f 56f
1:50am 8.5ft 8s 6s 18 22 mph 1006.6mb 57f 57f
12:50am 8ft 8s 6s 20 22 mph 1006.3mb 57f 57f
Sun 08/13 11:50pm 8.5ft 8s 6s 18 20 mph 1006.3mb 57f 56f
10:50pm 7.5ft 8s 6s 22 27 mph 1006.1mb 57f 56f
9:50pm 8ft 8s 6s 20 27 mph 1005.7mb 57f 56f
8:50pm 8ft 8s 6s 22 27 mph 1005.3mb 57f 56f
7:50pm 7.5ft 7s 6s 22 27 mph 1005.2mb 57f 56f
6:50pm 8ft 8s 6s 22 25 mph 1005mb 56f 56f
5:50pm 7ft 7s 5s 20 25 mph 1004.7mb 56f 56f
4:50pm 7ft 8s 5s 20 25 mph 1004.3mb 56f 56f
3:50pm 8ft 8s 6s 20 27 mph 1003.8mb 56f 56f
2:50pm 8ft 7s 6s 22 29 mph 1003.6mb 56f 56f
1:50pm 7ft 7s 5s 20 25 mph 1003.4mb 56f 56f
12:50pm 7ft 7s 5s 20 25 mph 1003.2mb 56f 56f
11:50am 7ft 8s 5s 22 27 mph 1002.9mb 56f 57f
10:50am 7.5ft 7s 5s 18 22 mph 1002.8mb 56f 56f
9:50am 8ft 7s 5s 22 27 mph 1002.2mb 56f 56f
8:50am 9ft 8s 6s 20 27 mph 1001.6mb 56f 56f
7:50am 9ft 7s 6s 22 29 mph 1001.2mb 56f 57f
6:50am 9.5ft 8s 6s 25 29 mph 1000.7mb 55f 57f
5:50am 10ft 8s 6s 22 29 mph 1000.3mb 56f 57f
4:50am 9.5ft 8s 6s 22 27 mph 999.6mb 57f 57f
3:50am 10ft 8s 6s 25 29 mph 998.8mb 57f 57f
2:50am 9ft 7s 6s 25 31 mph 998.1mb 57f 57f
1:50am 9.5ft 7s  -  25 34 mph 997.5mb 57f 57f
12:50am 8ft 7s 5s 29 36 mph 997.1mb 58f 57f
Sat 08/12 11:50pm 9.5ft 7s 6s 29 36 mph 996.6mb 58f 56f
10:50pm 8.5ft 8s 5s 29 38 mph 996.3mb 58f 56f
9:50pm 7.5ft 6s 5s 29 34 mph 996.2mb 58f 55f
8:50pm 6.5ft 7s 5s 25 29 mph 995.9mb 58f 57f
7:50pm 5.5ft 6s 5s 25 31 mph 995.5mb 58f 56f
6:50pm 5ft 6s 5s 22 27 mph 995.3mb 58f 56f